Time;durP1;ratioP1;P1;durP2;ratioP2;P2;SDS_P1;SDS_P2;PMS_P1;PMS_P2;Temp;Humidity;BMP_temperature;BMP_pressure;BME280_temperature;BME280_humidity;BME280_pressure;Samples;Min_cycle;Max_cycle;Signal;HPM_P1;HPM_P2
2022/07/07 00:00:23;;;;;;;10.70;4.60;;;;;;;15.67;78.46;101927.72;10407545;28;20041;-75
2022/07/07 00:05:24;;;;;;;7.88;4.13;;;;;;;15.75;77.11;101924.50;10459130;28;21495;-74
2022/07/07 00:10:28;;;;;;;7.82;3.60;;;;;;;15.77;77.63;101923.72;10480174;28;20040;-75
2022/07/07 00:15:32;;;;;;;6.45;3.97;;;;;;;15.77;78.28;101923.72;10465722;28;20047;-75
2022/07/07 00:20:35;;;;;;;8.48;4.38;;;;;;;15.77;79.10;101902.63;10447814;28;20032;-75
2022/07/07 00:25:36;;;;;;;3.65;2.58;;;;;;;15.76;78.64;101894.66;10465845;28;20040;-75
2022/07/07 00:30:37;;;;;;;6.15;2.50;;;;;;;15.80;78.60;101886.03;10483149;28;20055;-75
2022/07/07 00:35:41;;;;;;;8.00;3.78;;;;;;;15.80;78.81;101881.63;10451858;28;20036;-75
2022/07/07 00:40:42;;;;;;;5.07;2.50;;;;;;;15.82;80.55;101873.78;10466161;28;20086;-75
2022/07/07 00:45:48;;;;;;;9.60;4.35;;;;;;;15.82;79.76;101858.84;10482587;28;20553;-76
2022/07/07 00:50:49;;;;;;;5.35;3.20;;;;;;;15.83;80.51;101847.44;10490356;28;20465;-76
2022/07/07 00:55:49;;;;;;;6.45;3.85;;;;;;;15.85;80.25;101843.13;10506719;28;20117;-76
2022/07/07 01:00:50;;;;;;;7.65;4.55;;;;;;;15.90;80.03;101839.81;10490317;28;20047;-76
2022/07/07 01:05:50;;;;;;;6.80;3.67;;;;;;;16.00;79.79;101829.72;10524604;28;20119;-76
2022/07/07 01:10:51;;;;;;;3.83;2.67;;;;;;;16.01;80.25;101822.69;10489540;28;20454;-77
2022/07/07 01:15:51;;;;;;;5.95;3.78;;;;;;;16.00;80.55;101807.66;10485430;28;20122;-76
2022/07/07 01:20:52;;;;;;;6.93;3.92;;;;;;;16.08;80.24;101818.56;10499763;28;20035;-76
2022/07/07 01:25:52;;;;;;;8.75;4.10;;;;;;;16.11;79.72;101803.72;10486849;28;20043;-77
2022/07/07 01:30:53;;;;;;;8.38;3.97;;;;;;;16.12;80.35;101804.63;10516090;28;20032;-76
2022/07/07 01:35:53;;;;;;;7.53;3.30;;;;;;;16.14;80.35;101809.13;10523008;28;20078;-76
2022/07/07 01:40:54;;;;;;;6.43;3.95;;;;;;;16.20;79.77;101807.56;10479819;28;20060;-76
2022/07/07 01:45:54;;;;;;;6.57;4.20;;;;;;;16.23;79.83;101800.69;10455180;28;20115;-76
2022/07/07 01:50:55;;;;;;;6.90;4.60;;;;;;;16.26;79.91;101798.16;10487416;28;20118;-76
2022/07/07 01:55:55;;;;;;;7.28;3.95;;;;;;;16.33;79.67;101787.84;10525463;28;20036;-76
2022/07/07 02:00:56;;;;;;;6.45;3.90;;;;;;;16.32;80.37;101781.63;10472454;28;20131;-76
2022/07/07 02:05:56;;;;;;;4.68;3.00;;;;;;;16.32;79.87;101786.91;10471094;28;20131;-76
2022/07/07 02:11:12;;;;;;;5.15;3.50;;;;;;;16.35;80.09;101787.03;10522176;28;20127;-75
2022/07/07 02:16:13;;;;;;;5.18;3.90;;;;;;;16.42;79.78;101782.91;10477119;28;20484;-76
2022/07/07 02:21:14;;;;;;;8.52;3.83;;;;;;;16.38;79.97;101784.50;10469731;28;20053;-76
2022/07/07 02:26:15;;;;;;;5.68;3.20;;;;;;;16.44;79.91;101778.56;10489849;28;20384;-76
2022/07/07 02:31:15;;;;;;;11.02;4.35;;;;;;;16.46;79.75;101778.63;10511324;28;20048;-76
2022/07/07 02:36:16;;;;;;;4.93;3.03;;;;;;;16.50;79.39;101784.09;10509861;28;20127;-76
2022/07/07 02:41:16;;;;;;;5.13;3.45;;;;;;;16.49;79.80;101776.09;10457296;28;20040;-76
2022/07/07 02:46:17;;;;;;;5.90;3.63;;;;;;;16.48;80.16;101777.84;10481810;28;20037;-76
2022/07/07 02:51:17;;;;;;;5.70;3.13;;;;;;;16.47;80.20;101776.06;10506869;28;20480;-77
2022/07/07 02:56:18;;;;;;;5.30;3.17;;;;;;;16.49;80.61;101777.00;10527570;28;20035;-76
2022/07/07 03:01:18;;;;;;;5.55;3.25;;;;;;;16.45;81.25;101783.03;10469392;28;20135;-76
2022/07/07 03:06:19;;;;;;;7.50;3.50;;;;;;;16.43;82.07;101780.31;10485539;28;20059;-76
2022/07/07 03:11:19;;;;;;;9.35;4.75;;;;;;;16.35;83.03;101781.75;10485201;28;20047;-76
2022/07/07 03:16:20;;;;;;;6.78;3.88;;;;;;;16.32;83.50;101786.91;10479950;28;20130;-76
2022/07/07 03:21:20;;;;;;;5.65;3.80;;;;;;;16.30;83.94;101772.75;10506924;28;20169;-77
2022/07/07 03:26:21;;;;;;;8.25;3.28;;;;;;;16.30;83.95;101764.81;10507010;28;20123;-76
2022/07/07 03:31:21;;;;;;;8.93;4.47;;;;;;;16.31;83.69;101760.47;10469944;28;20127;-76
2022/07/07 03:36:22;;;;;;;9.13;4.03;;;;;;;16.28;84.11;101766.50;10500836;28;20120;-76
2022/07/07 03:41:22;;;;;;;6.28;3.40;;;;;;;16.30;84.08;101759.53;10525073;28;20055;-77
2022/07/07 03:46:23;;;;;;;12.18;4.60;;;;;;;16.27;83.93;101752.41;10518317;28;20111;-76
2022/07/07 03:51:23;;;;;;;7.63;4.05;;;;;;;16.26;83.97;101752.34;10464638;28;20123;-77
2022/07/07 03:56:24;;;;;;;5.43;3.83;;;;;;;16.29;83.86;101744.53;10425504;28;20121;-76
2022/07/07 04:01:24;;;;;;;8.30;4.05;;;;;;;16.28;84.05;101738.38;10486738;28;20046;-77
2022/07/07 04:06:25;;;;;;;7.93;4.28;;;;;;;16.27;84.23;101735.66;10466377;28;20046;-76
2022/07/07 04:11:26;;;;;;;7.30;3.83;;;;;;;16.29;83.18;101750.75;10495661;28;20124;-77
2022/07/07 04:16:28;;;;;;;5.97;3.50;;;;;;;16.35;83.25;101752.69;10465790;28;20060;-77
2022/07/07 04:21:28;;;;;;;6.60;4.18;;;;;;;16.41;83.25;101744.13;10507266;28;20035;-76
2022/07/07 04:26:29;;;;;;;8.32;4.07;;;;;;;16.40;83.30;101730.00;10521372;28;20040;-76
2022/07/07 04:31:30;;;;;;;9.77;3.60;;;;;;;16.49;82.71;101739.09;10486904;28;20370;-76
2022/07/07 04:36:30;;;;;;;5.68;2.83;;;;;;;16.38;83.95;101755.44;10483569;28;20119;-76
2022/07/07 04:41:31;;;;;;;6.30;3.67;;;;;;;16.02;87.94;101779.59;10469345;28;20101;-75
2022/07/07 04:46:32;;;;;;;7.90;3.42;;;;;;;15.44;92.41;101776.31;10506722;28;20629;-74
2022/07/07 04:51:33;;;;;;;7.47;3.97;;;;;;;15.09;96.44;101781.00;10503854;28;20035;-75
2022/07/07 04:56:33;;;;;;;7.28;3.95;;;;;;;14.96;98.43;101779.56;10503559;28;20539;-75
2022/07/07 05:01:34;;;;;;;7.15;4.43;;;;;;;14.93;99.79;101769.78;10523242;28;20123;-75
2022/07/07 05:06:34;;;;;;;9.73;6.30;;;;;;;14.88;100.00;101778.31;10464757;28;20559;-75
2022/07/07 05:11:36;;;;;;;9.07;5.50;;;;;;;14.93;100.00;101779.44;10491638;28;20056;-75
2022/07/07 05:16:36;;;;;;;6.18;4.85;;;;;;;15.00;100.00;101772.69;10529238;28;20044;-75
2022/07/07 05:21:37;;;;;;;5.82;3.65;;;;;;;15.05;100.00;101773.78;10485022;28;20475;-75
2022/07/07 05:26:37;;;;;;;7.18;4.88;;;;;;;15.14;100.00;101786.47;10511395;28;20411;-74
2022/07/07 05:31:38;;;;;;;6.47;4.38;;;;;;;15.26;99.16;101787.00;10512525;28;20040;-75
2022/07/07 05:36:38;;;;;;;6.95;4.30;;;;;;;15.42;97.80;101796.47;10495586;28;20048;-75
2022/07/07 05:41:40;;;;;;;7.00;4.20;;;;;;;15.40;97.25;101799.06;10530329;28;20119;-75
2022/07/07 05:46:41;;;;;;;8.10;4.17;;;;;;;15.46;96.94;101803.69;10503815;28;20044;-75
2022/07/07 05:51:41;;;;;;;5.55;3.65;;;;;;;15.56;97.05;101812.91;10468800;28;20120;-75
2022/07/07 05:56:41;;;;;;;6.45;2.95;;;;;;;16.02;95.48;101813.91;10449263;28;20471;-75
2022/07/07 06:01:42;;;;;;;5.18;4.07;;;;;;;16.32;92.22;101834.47;10413804;28;20125;-75
2022/07/07 06:06:43;;;;;;;4.30;2.80;;;;;;;16.40;90.80;101840.94;10458976;28;20045;-76
2022/07/07 06:11:43;;;;;;;4.78;3.20;;;;;;;16.36;91.45;101844.31;10472468;28;20438;-77
2022/07/07 06:16:45;;;;;;;5.00;2.40;;;;;;;16.26;91.05;101855.34;10445241;28;20045;-76
2022/07/07 06:21:45;;;;;;;3.10;2.10;;;;;;;16.41;90.51;101861.25;10460815;28;20037;-76
2022/07/07 06:26:46;;;;;;;4.05;3.00;;;;;;;16.68;89.83;101872.84;10458985;28;20029;-75
2022/07/07 06:31:46;;;;;;;5.50;1.80;;;;;;;16.94;88.17;101873.81;10476608;28;20174;-76
2022/07/07 06:36:47;;;;;;;3.28;1.73;;;;;;;17.22;85.59;101874.00;10446767;28;20116;-77
2022/07/07 06:41:47;;;;;;;3.65;1.55;;;;;;;17.24;84.21;101886.41;10447421;28;20041;-77
2022/07/07 06:46:48;;;;;;;12.05;2.50;;;;;;;17.49;83.20;101882.00;10437073;28;20068;-77
2022/07/07 06:51:48;;;;;;;3.22;1.45;;;;;;;17.32;81.87;101884.06;10468786;28;20519;-76
2022/07/07 06:56:49;;;;;;;2.80;1.35;;;;;;;16.87;84.44;101899.16;10457333;28;20484;-75
2022/07/07 07:01:50;;;;;;;3.33;1.20;;;;;;;16.88;85.88;101894.75;10428414;28;20029;-76
2022/07/07 07:06:50;;;;;;;3.83;1.30;;;;;;;17.81;83.76;101891.94;10437103;28;20040;-76
2022/07/07 07:11:51;;;;;;;2.63;1.05;;;;;;;20.58;69.26;101890.94;10478585;28;20127;-76
2022/07/07 07:16:52;;;;;;;6.22;1.13;;;;;;;20.18;67.47;101890.91;10426982;28;20474;-76
2022/07/07 07:21:52;;;;;;;6.80;1.40;;;;;;;19.16;71.13;101909.44;10473188;28;20123;-76
2022/07/07 07:26:53;;;;;;;5.05;1.35;;;;;;;20.35;67.17;101924.97;10457156;28;20399;-77
2022/07/07 07:31:53;;;;;;;3.27;1.10;;;;;;;20.92;60.99;101909.44;10491094;28;20069;-76
2022/07/07 07:36:54;;;;;;;5.03;1.80;;;;;;;19.40;64.80;101930.47;10467254;28;20090;-75
2022/07/07 07:41:54;;;;;;;5.60;1.40;;;;;;;19.12;66.46;101928.75;10467610;28;20025;-76
2022/07/07 07:46:55;;;;;;;4.20;1.33;;;;;;;18.08;69.55;101933.47;10491119;28;20132;-76
2022/07/07 07:51:55;;;;;;;5.72;1.65;;;;;;;18.34;68.49;101951.13;10513689;28;20567;-76
2022/07/07 07:56:56;;;;;;;3.28;1.40;;;;;;;19.31;65.29;101962.06;10466291;28;20108;-76
2022/07/07 08:01:56;;;;;;;4.45;1.05;;;;;;;19.76;62.95;101950.94;10484070;28;20120;-76
2022/07/07 08:06:57;;;;;;;10.38;1.10;;;;;;;19.31;63.23;101968.25;10496735;28;20068;-76
2022/07/07 08:11:57;;;;;;;9.80;1.10;;;;;;;19.11;65.57;101977.38;10525374;28;20040;-75
2022/07/07 08:16:58;;;;;;;5.70;1.48;;;;;;;20.36;62.75;101967.53;10512317;28;20560;-76
2022/07/07 08:21:58;;;;;;;10.90;1.50;;;;;;;22.29;56.80;101974.19;10477468;28;20076;-77
2022/07/07 08:26:59;;;;;;;6.10;1.43;;;;;;;21.60;56.13;101974.69;10484682;28;20120;-75
2022/07/07 08:31:59;;;;;;;4.00;1.03;;;;;;;21.95;56.45;101966.50;10440722;28;20497;-75
2022/07/07 08:37:00;;;;;;;5.13;2.10;;;;;;;21.16;56.87;101983.59;10481427;28;20124;-75
2022/07/07 08:42:01;;;;;;;3.97;1.48;;;;;;;19.85;60.70;101998.06;10490936;28;20048;-75
2022/07/07 08:47:02;;;;;;;3.80;1.30;;;;;;;19.57;63.18;101991.13;10466740;28;20041;-75
2022/07/07 08:52:02;;;;;;;7.30;2.17;;;;;;;20.55;61.76;101991.94;10468525;28;20476;-75
2022/07/07 08:57:03;;;;;;;3.55;1.50;;;;;;;21.78;57.05;101992.84;10488155;28;20451;-76
2022/07/07 09:02:04;;;;;;;5.37;1.57;;;;;;;23.72;52.33;101997.56;10484071;28;20091;-76
2022/07/07 09:07:05;;;;;;;6.00;3.33;;;;;;;22.10;52.68;102011.19;10472015;28;20036;-75
2022/07/07 09:12:10;;;;;;;3.70;0.97;;;;;;;18.68;67.40;102037.91;10469904;28;20047;-75
2022/07/07 09:17:16;;;;;;;3.05;1.10;;;;;;;17.63;72.00;102041.31;10463305;28;20036;-74
2022/07/07 09:22:17;;;;;;;18.15;11.57;;;;;;;18.85;70.62;102043.75;10482800;28;20051;-75
2022/07/07 09:27:17;;;;;;;5.80;1.42;;;;;;;19.79;64.50;102041.31;10478627;28;20083;-76
2022/07/07 09:32:19;;;;;;;3.10;1.00;;;;;;;20.52;61.47;102039.72;10479407;28;20117;-75
2022/07/07 09:42:38;;;;;;;2.15;0.60;;;;;;;23.28;51.60;102060.22;10498530;28;20479;-76
2022/07/07 09:47:39;;;;;;;2.90;0.80;;;;;;;22.75;53.12;102066.53;10500549;28;20052;-75
2022/07/07 09:52:41;;;;;;;2.53;0.90;;;;;;;22.93;53.08;102068.59;10482800;28;20041;-76
2022/07/07 09:57:44;;;;;;;4.00;1.27;;;;;;;22.57;51.74;102073.38;10430235;28;20051;-77
2022/07/07 10:02:45;;;;;;;1.75;0.80;;;;;;;22.73;52.67;102070.09;10448527;28;20123;-76
2022/07/07 10:07:48;;;;;;;;;;;;;;;22.74;50.76;102084.31;10428770;28;20069;-76
2022/07/07 10:12:51;;;;;;;3.17;0.93;;;;;;;21.97;53.67;102073.16;10460350;28;19990;-76
2022/07/07 10:17:51;;;;;;;5.93;1.20;;;;;;;20.55;57.11;102069.03;10455779;28;20445;-75
2022/07/07 10:22:52;;;;;;;3.33;1.08;;;;;;;18.78;62.56;102103.66;10485821;28;20040;-76
2022/07/07 10:27:53;;;;;;;3.80;1.00;;;;;;;18.10;66.08;102109.25;10440368;28;20430;-76
2022/07/07 10:32:54;;;;;;;6.57;1.20;;;;;;;18.08;66.64;102113.59;10434481;28;20082;-76
2022/07/07 10:37:55;;;;;;;2.95;1.25;;;;;;;18.14;66.55;102124.41;10432490;28;20116;-75
2022/07/07 10:43:14;;;;;;;19.30;5.83;;;;;;;18.28;65.85;102123.16;10473436;28;20032;-75
2022/07/07 10:48:46;;;;;;;4.47;1.35;;;;;;;19.55;64.39;102117.63;10507021;28;20408;-77
2022/07/07 10:54:03;;;;;;;1.92;0.95;;;;;;;22.16;58.43;102127.69;10479705;28;20037;-77
2022/07/07 10:59:03;;;;;;;3.78;1.30;;;;;;;22.91;52.14;102132.66;10451162;28;20067;-75
2022/07/07 11:04:04;;;;;;;2.13;0.65;;;;;;;21.08;55.13;102137.78;10480145;28;20137;-74
2022/07/07 11:09:05;;;;;;;5.25;1.08;;;;;;;19.55;61.09;102153.00;10489216;28;20121;-76
2022/07/07 11:14:07;;;;;;;1.70;0.95;;;;;;;18.62;64.32;102163.19;10455885;28;20480;-77
2022/07/07 11:19:10;;;;;;;7.75;0.85;;;;;;;17.94;66.93;102184.53;10442734;28;20476;-77
2022/07/07 11:24:18;;;;;;;8.32;1.92;;;;;;;17.59;69.81;102177.94;10504209;28;20086;-77
2022/07/07 11:29:19;;;;;;;3.28;0.93;;;;;;;18.33;69.70;102166.63;10483658;28;20035;-76
2022/07/07 11:34:19;;;;;;;3.13;1.13;;;;;;;20.33;64.41;102177.47;10477963;28;20120;-77
2022/07/07 11:39:20;;;;;;;4.45;1.63;;;;;;;20.36;63.48;102177.56;10478122;28;20039;-77
2022/07/07 11:44:21;;;;;;;2.10;0.98;;;;;;;19.88;63.32;102184.09;10508453;28;20074;-76
2022/07/07 11:49:23;;;;;;;3.80;2.20;;;;;;;19.11;67.36;102195.88;10453151;28;20063;-76
2022/07/07 11:54:23;;;;;;;4.22;1.13;;;;;;;19.30;67.12;102199.13;10470692;28;20032;-76
2022/07/07 11:59:24;;;;;;;4.53;1.40;;;;;;;19.08;67.24;102209.91;10497374;28;20178;-76
2022/07/07 12:04:25;;;;;;;3.38;1.30;;;;;;;18.47;69.71;102204.22;10465191;28;20047;-77
2022/07/07 12:09:25;;;;;;;3.08;1.60;;;;;;;18.36;70.57;102212.66;10476226;28;20129;-77
2022/07/07 12:14:27;;;;;;;4.32;1.30;;;;;;;18.45;69.78;102215.63;10506124;28;20138;-77
2022/07/07 12:19:27;;;;;;;3.38;1.48;;;;;;;18.07;71.68;102234.53;10520990;28;20044;-76
2022/07/07 12:24:30;;;;;;;5.38;1.98;;;;;;;17.93;74.54;102219.81;10465288;28;20445;-77
2022/07/07 12:29:31;;;;;;;5.95;1.40;;;;;;;18.45;74.51;102221.81;10483624;28;20820;-77
2022/07/07 12:34:36;;;;;;;4.95;2.17;;;;;;;19.42;68.53;102219.84;10464669;28;20118;-76
2022/07/07 12:39:36;;;;;;;4.43;1.38;;;;;;;19.63;67.56;102220.53;10497766;28;20035;-76
2022/07/07 12:44:37;;;;;;;3.55;1.88;;;;;;;18.98;67.82;102238.75;10449123;28;20127;-77
2022/07/07 12:49:37;;;;;;;2.53;1.23;;;;;;;18.56;71.13;102239.88;10481934;28;20043;-76
2022/07/07 12:54:38;;;;;;;3.78;1.90;;;;;;;19.34;67.91;102244.38;10448458;28;20129;-77
2022/07/07 12:59:45;;;;;;;7.75;2.08;;;;;;;20.48;65.18;102239.94;10440126;28;20052;-76
2022/07/07 13:04:46;;;;;;;2.80;1.42;;;;;;;21.17;60.63;102240.00;10424812;28;20049;-76
2022/07/07 13:09:47;;;;;;;6.20;1.40;;;;;;;19.39;65.44;102259.56;10440586;28;20057;-77
2022/07/07 13:14:48;;;;;;;6.70;2.20;;;;;;;18.53;70.99;102261.88;10440401;28;20127;-76
2022/07/07 13:19:50;;;;;;;3.23;2.17;;;;;;;19.00;73.77;102263.56;10441799;28;20032;-77
2022/07/07 13:24:51;;;;;;;6.38;1.95;;;;;;;21.62;61.62;102259.75;10442427;28;20040;-76
2022/07/07 13:29:51;;;;;;;7.80;2.10;;;;;;;21.82;58.61;102271.81;10446959;28;20560;-76
2022/07/07 13:34:52;;;;;;;15.27;9.67;;;;;;;21.27;61.99;102268.66;10446691;28;20124;-77
2022/07/07 13:39:52;;;;;;;5.38;1.98;;;;;;;22.09;60.11;102264.41;10448083;28;20037;-76
2022/07/07 13:44:53;;;;;;;6.78;3.97;;;;;;;23.03;56.79;102273.41;10446616;28;20123;-76
2022/07/07 13:49:55;;;;;;;9.03;2.53;;;;;;;22.43;56.87;102271.38;10446523;28;20029;-76
2022/07/07 13:54:55;;;;;;;4.57;1.60;;;;;;;24.90;50.07;102267.22;10448178;28;20041;-76
2022/07/07 13:59:56;;;;;;;19.80;2.63;;;;;;;25.13;46.35;102277.25;10454090;28;20060;-76
2022/07/07 14:04:56;;;;;;;4.63;1.50;;;;;;;23.61;51.58;102272.63;10488039;28;20126;-76
2022/07/07 14:09:59;;;;;;;7.23;2.40;;;;;;;22.80;53.15;102289.03;10469490;28;20120;-76
2022/07/07 14:14:59;;;;;;;4.20;1.15;;;;;;;20.73;58.58;102317.75;10471138;28;20032;-75
2022/07/07 14:20:00;;;;;;;10.95;2.42;;;;;;;19.45;63.66;102324.41;10452895;28;20079;-74
2022/07/07 14:25:02;;;;;;;7.77;1.80;;;;;;;19.61;64.66;102322.25;10469898;28;20039;-76
2022/07/07 14:30:04;;;;;;;5.38;1.83;;;;;;;20.77;62.38;102327.63;10453457;28;20032;-76
2022/07/07 14:35:05;;;;;;;6.70;2.60;;;;;;;22.73;56.45;102310.25;10486143;28;20124;-75
2022/07/07 14:40:06;;;;;;;3.83;1.43;;;;;;;23.31;53.79;102306.91;10468503;28;20028;-76
2022/07/07 14:45:07;;;;;;;8.77;2.23;;;;;;;23.10;52.24;102320.72;10451348;28;20480;-76
2022/07/07 14:50:07;;;;;;;17.97;3.87;;;;;;;22.80;55.24;102318.38;10486004;28;20045;-76
2022/07/07 14:55:08;;;;;;;9.63;2.87;;;;;;;23.50;49.46;102327.69;10467705;28;20098;-76
2022/07/07 15:00:09;;;;;;;12.37;1.73;;;;;;;23.63;49.32;102324.34;10467804;28;20120;-77
2022/07/07 15:05:09;;;;;;;7.20;1.80;;;;;;;22.64;50.76;102341.16;10468332;28;20102;-75
2022/07/07 15:10:10;;;;;;;10.27;2.13;;;;;;;21.60;53.37;102334.28;10484847;28;20033;-76
2022/07/07 15:15:11;;;;;;;5.03;2.33;;;;;;;21.12;54.43;102347.25;10484580;28;20527;-75
2022/07/07 15:20:11;;;;;;;6.35;2.40;;;;;;;20.92;54.67;102351.13;10450238;28;20044;-76
2022/07/07 15:25:13;;;;;;;6.43;2.60;;;;;;;20.44;55.86;102361.22;10450711;28;20125;-76
2022/07/07 15:30:14;;;;;;;6.90;2.55;;;;;;;20.85;55.82;102362.44;10450389;28;20419;-76
2022/07/07 15:35:15;;;;;;;9.18;2.28;;;;;;;21.41;54.16;102362.22;10465142;28;20029;-76
2022/07/07 15:40:15;;;;;;;9.90;4.60;;;;;;;21.76;51.39;102370.25;10464842;28;20046;-76
2022/07/07 15:45:16;;;;;;;7.32;2.47;;;;;;;20.89;52.57;102380.31;10461517;28;20479;-75
2022/07/07 15:50:17;;;;;;;18.83;5.55;;;;;;;20.55;54.15;102382.84;10436777;28;20128;-75
2022/07/07 15:55:17;;;;;;;2.47;1.10;;;;;;;20.65;53.48;102392.00;10465178;28;20036;-76
2022/07/07 16:00:18;;;;;;;12.18;2.67;;;;;;;20.51;52.73;102402.22;10464415;28;20052;-75
2022/07/07 16:05:18;;;;;;;11.10;2.83;;;;;;;20.05;53.79;102401.66;10480985;28;20468;-77
2022/07/07 16:10:19;;;;;;;14.82;4.03;;;;;;;20.16;52.42;102402.00;10448084;28;20032;-74
2022/07/07 16:15:19;;;;;;;12.18;3.28;;;;;;;19.75;54.51;102405.03;10464642;28;20494;-75
2022/07/07 16:20:21;;;;;;;11.73;5.40;;;;;;;19.70;54.80;102423.50;10464043;28;20373;-75
2022/07/07 16:25:21;;;;;;;14.82;2.95;;;;;;;20.20;54.33;102423.41;10482137;28;20127;-76
2022/07/07 16:30:22;;;;;;;7.57;2.15;;;;;;;20.41;52.14;102430.28;10479915;28;20051;-74
2022/07/07 16:35:23;;;;;;;5.47;1.98;;;;;;;19.79;54.34;102433.53;10475794;28;20456;-74
2022/07/07 16:40:23;;;;;;;11.23;3.17;;;;;;;19.81;55.36;102430.09;10519546;28;20038;-76
2022/07/07 16:45:24;;;;;;;6.95;1.80;;;;;;;20.13;53.27;102436.47;10505363;28;20058;-75
2022/07/07 16:50:25;;;;;;;15.07;3.28;;;;;;;19.85;54.45;102443.47;10524252;28;20044;-74
2022/07/07 16:55:26;;;;;;;7.00;2.25;;;;;;;19.62;53.65;102449.78;10486404;28;20036;-75
2022/07/07 17:00:27;;;;;;;9.93;2.22;;;;;;;19.15;53.72;102462.22;10492932;28;20044;-74
2022/07/07 17:05:27;;;;;;;6.85;3.20;;;;;;;19.02;53.82;102464.41;10456482;28;20496;-74
2022/07/07 17:10:28;;;;;;;6.95;2.03;;;;;;;18.61;54.27;102466.31;10490205;28;20124;-75
2022/07/07 17:15:28;;;;;;;6.50;2.72;;;;;;;18.31;55.14;102461.56;10455093;28;20506;-77
2022/07/07 17:20:29;;;;;;;7.72;2.35;;;;;;;18.34;55.88;102462.63;10484749;28;20119;-75
2022/07/07 17:25:30;;;;;;;8.80;3.15;;;;;;;18.09;56.80;102470.38;10441804;28;20392;-75
2022/07/07 17:30:31;;;;;;;16.65;3.13;;;;;;;17.93;56.54;102475.00;10496514;28;20042;-75
2022/07/07 17:35:32;;;;;;;13.90;2.65;;;;;;;17.75;56.72;102475.09;10513555;28;20037;-75
2022/07/07 17:40:32;;;;;;;9.15;3.25;;;;;;;17.64;57.40;102473.72;10531875;28;20036;-75
2022/07/07 17:45:33;;;;;;;15.93;3.33;;;;;;;17.53;58.75;102481.19;10530079;28;20058;-75
2022/07/07 17:50:33;;;;;;;13.63;2.42;;;;;;;17.65;57.46;102492.34;10530353;28;20468;-74
2022/07/07 17:55:34;;;;;;;16.67;3.08;;;;;;;17.65;56.77;102494.06;10509973;28;20559;-75
2022/07/07 18:00:35;;;;;;;16.58;7.53;;;;;;;17.26;56.21;102489.69;10474608;28;20165;-74
2022/07/07 18:05:35;;;;;;;8.65;2.40;;;;;;;16.69;56.81;102499.34;10498115;28;20063;-75
2022/07/07 18:10:36;;;;;;;7.43;2.85;;;;;;;16.47;59.04;102502.69;10517702;28;20131;-75
2022/07/07 18:15:36;;;;;;;9.38;2.92;;;;;;;16.50;59.31;102505.50;10474172;28;20044;-75
2022/07/07 18:20:37;;;;;;;12.55;1.90;;;;;;;16.50;59.20;102505.50;10454967;28;20037;-73
2022/07/07 18:25:37;;;;;;;8.63;2.58;;;;;;;16.32;60.50;102520.44;10473775;28;20089;-73
2022/07/07 18:30:38;;;;;;;5.65;2.15;;;;;;;16.39;59.70;102527.84;10498348;28;20174;-74
2022/07/07 18:35:38;;;;;;;10.10;3.88;;;;;;;16.38;59.36;102541.88;10470567;28;20076;-76
2022/07/07 18:40:40;;;;;;;10.98;3.00;;;;;;;16.32;59.60;102547.75;10466538;28;20511;-75
2022/07/07 18:45:41;;;;;;;10.30;2.47;;;;;;;16.03;61.26;102564.75;10459690;28;20049;-74
2022/07/07 18:50:43;;;;;;;13.75;3.92;;;;;;;15.95;62.75;102565.25;10511704;28;20495;-75
2022/07/07 18:55:45;;;;;;;9.38;4.45;;;;;;;16.00;62.50;102576.03;10482054;28;20040;-75
2022/07/07 19:00:46;;;;;;;7.28;2.33;;;;;;;15.96;63.21;102579.34;10484472;28;20396;-75
2022/07/07 19:05:46;;;;;;;6.00;2.97;;;;;;;15.83;63.23;102581.28;10488909;28;20062;-76
2022/07/07 19:10:47;;;;;;;6.78;2.60;;;;;;;15.64;63.33;102582.06;10453883;28;20119;-77
2022/07/07 19:15:47;;;;;;;17.02;4.70;;;;;;;15.46;62.97;102587.22;10451513;28;20127;-74
2022/07/07 19:20:48;;;;;;;12.07;2.90;;;;;;;15.02;64.35;102593.56;10465425;28;20062;-75
2022/07/07 19:25:49;;;;;;;8.77;3.30;;;;;;;14.92;64.83;102589.50;10450994;28;20051;-76
2022/07/07 19:30:49;;;;;;;9.93;2.75;;;;;;;14.87;65.28;102610.31;10464236;28;20431;-75
2022/07/07 19:35:50;;;;;;;12.60;2.83;;;;;;;14.67;66.41;102612.66;10465690;28;20123;-76
2022/07/07 19:40:50;;;;;;;10.23;2.80;;;;;;;14.47;67.96;102632.56;10482806;28;20055;-76
2022/07/07 19:45:51;;;;;;;8.65;3.28;;;;;;;14.39;68.58;102645.25;10437013;28;20567;-75
2022/07/07 19:50:52;;;;;;;8.38;2.85;;;;;;;14.41;69.12;102654.97;10470100;28;20041;-76
2022/07/07 19:55:52;;;;;;;7.43;2.45;;;;;;;14.46;69.49;102666.72;10464974;28;20071;-75
2022/07/07 20:00:53;;;;;;;8.45;2.58;;;;;;;14.41;69.74;102669.06;10497112;28;20048;-75
2022/07/07 20:05:54;;;;;;;7.03;3.15;;;;;;;14.41;69.71;102674.34;10507656;28;20035;-75
2022/07/07 20:10:54;;;;;;;8.43;4.03;;;;;;;14.55;68.31;102683.06;10486375;28;20069;-75
2022/07/07 20:15:55;;;;;;;10.55;3.00;;;;;;;14.55;68.09;102675.16;10503906;28;20131;-75
2022/07/07 20:20:58;;;;;;;8.40;2.75;;;;;;;14.62;67.87;102690.53;10476558;28;20127;-76
2022/07/07 20:25:59;;;;;;;10.88;1.98;;;;;;;14.71;67.40;102689.28;10490483;28;20161;-76
2022/07/07 20:30:59;;;;;;;10.90;2.70;;;;;;;14.66;67.84;102697.78;10492489;28;20194;-76
2022/07/07 20:36:00;;;;;;;10.77;2.22;;;;;;;14.56;68.68;102703.31;10484347;28;20085;-76
2022/07/07 20:41:01;;;;;;;11.10;3.95;;;;;;;14.46;68.61;102707.16;10478302;28;20545;-75
2022/07/07 20:46:03;;;;;;;8.95;2.58;;;;;;;14.41;68.20;102712.94;10472656;28;20479;-75
2022/07/07 20:51:03;;;;;;;12.95;2.97;;;;;;;14.50;68.13;102719.69;10520476;28;20054;-75
2022/07/07 20:56:05;;;;;;;13.32;3.30;;;;;;;14.49;68.67;102727.47;10524808;28;20042;-76
2022/07/07 21:01:05;;;;;;;12.83;5.73;;;;;;;14.51;69.12;102724.16;10483464;28;20063;-75
2022/07/07 21:06:07;;;;;;;7.30;3.17;;;;;;;14.48;68.48;102725.66;10464530;28;20029;-76
2022/07/07 21:11:08;;;;;;;6.97;2.92;;;;;;;14.53;68.68;102729.50;10492386;28;20469;-76
2022/07/07 21:16:08;;;;;;;8.10;3.13;;;;;;;14.37;69.50;102731.19;10505403;28;20387;-76
2022/07/07 21:21:11;;;;;;;10.30;3.38;;;;;;;14.25;70.43;102743.59;10510410;28;20064;-76
2022/07/07 21:26:13;;;;;;;11.55;3.05;;;;;;;14.20;70.88;102748.59;10497302;28;20056;-77
2022/07/07 21:31:13;;;;;;;8.73;2.72;;;;;;;14.16;71.42;102758.81;10493882;28;20035;-76
2022/07/07 21:36:14;;;;;;;11.30;3.70;;;;;;;14.10;71.31;102759.34;10476398;28;20130;-80
2022/07/07 21:41:15;;;;;;;4.43;2.28;;;;;;;13.97;72.76;102762.91;10486519;28;20044;-78
2022/07/07 21:46:16;;;;;;;8.70;3.15;;;;;;;13.95;73.25;102780.31;10432711;28;20035;-77
2022/07/07 21:51:17;;;;;;;10.45;3.22;;;;;;;13.96;72.97;102782.16;10490990;28;20127;-79
2022/07/07 21:56:17;;;;;;;16.92;4.68;;;;;;;14.00;73.18;102788.53;10494237;28;20055;-79
2022/07/07 22:01:21;;;;;;;8.52;3.63;;;;;;;13.99;73.13;102787.59;10512424;28;20427;-80
2022/07/07 22:11:40;;;;;;;6.00;3.15;;;;;;;14.03;73.07;102789.63;10507060;28;20510;-76
2022/07/07 22:16:41;;;;;;;11.63;3.20;;;;;;;14.03;73.78;102799.25;10511615;28;20122;-76
2022/07/07 22:21:41;;;;;;;11.57;3.42;;;;;;;14.03;73.77;102804.53;10490414;28;20057;-76
2022/07/07 22:26:42;;;;;;;10.98;4.85;;;;;;;14.01;73.11;102800.88;10488256;28;20117;-76
2022/07/07 22:31:43;;;;;;;4.40;2.60;;;;;;;13.96;73.28;102808.47;10489565;28;20045;-76
2022/07/07 22:36:43;;;;;;;12.30;3.08;;;;;;;13.89;73.82;102800.97;10468986;28;20039;-82
2022/07/07 22:41:44;;;;;;;12.40;2.60;;;;;;;13.77;74.27;102798.47;10507335;28;20072;-79
2022/07/07 22:46:44;;;;;;;14.60;3.33;;;;;;;13.68;74.50;102824.19;10509120;28;20165;-78
2022/07/07 22:51:45;;;;;;;9.63;3.35;;;;;;;13.58;74.79;102825.28;10510013;28;20508;-80
2022/07/07 22:56:46;;;;;;;7.18;3.40;;;;;;;13.44;74.67;102809.47;10474601;28;20044;-77
2022/07/07 23:01:47;;;;;;;13.57;3.35;;;;;;;13.17;76.25;102808.50;10452121;28;20047;-77
2022/07/07 23:06:47;;;;;;;11.80;3.53;;;;;;;13.04;77.21;102810.31;10507224;28;20130;-77